createdAt,value
2022-12-02T00:01:20.981Z,25.17
2022-12-02T00:03:51.660Z,26.30
2022-12-02T00:06:27.009Z,28.17
2022-12-02T00:08:57.454Z,23.20
2022-12-02T00:11:29.587Z,26.67
2022-12-02T00:14:04.085Z,26.70
2022-12-02T00:16:32.826Z,25.97
2022-12-02T00:19:02.932Z,25.57
2022-12-02T00:21:34.439Z,24.33
2022-12-02T00:24:03.154Z,24.20
2022-12-02T00:26:31.839Z,24.83
2022-12-02T00:29:00.446Z,22.13
2022-12-02T00:31:29.449Z,22.93
2022-12-02T00:33:59.250Z,23.30
2022-12-02T00:36:30.018Z,22.63
2022-12-02T00:38:59.448Z,22.03
2022-12-02T00:41:28.268Z,24.60
2022-12-02T00:44:14.860Z,24.40
2022-12-02T00:46:46.328Z,20.67
2022-12-02T00:49:19.252Z,23.30
2022-12-02T00:51:49.292Z,22.47
2022-12-02T00:54:18.039Z,22.60
2022-12-02T00:56:52.227Z,21.20
2022-12-02T00:59:21.708Z,24.03
2022-12-02T01:04:32.824Z,22.20
2022-12-02T01:07:02.981Z,20.83
2022-12-02T01:09:31.982Z,22.67
2022-12-02T01:12:00.822Z,21.87
2022-12-02T01:14:29.778Z,21.97
2022-12-02T01:16:58.477Z,23.53
2022-12-02T01:19:27.162Z,22.53
2022-12-02T01:21:55.870Z,22.90
2022-12-02T01:24:25.935Z,21.77
2022-12-02T01:26:54.605Z,20.97
2022-12-02T01:29:23.358Z,20.13
2022-12-02T01:31:52.101Z,20.60
2022-12-02T01:34:20.819Z,20.60
2022-12-02T01:36:49.442Z,18.73
2022-12-02T01:39:18.072Z,21.57
2022-12-02T01:41:48.379Z,19.77
2022-12-02T01:44:17.464Z,21.67
2022-12-02T01:46:49.349Z,19.40
2022-12-02T01:49:21.151Z,19.07
2022-12-02T01:51:58.947Z,20.17
2022-12-02T01:54:29.135Z,19.40
2022-12-02T01:56:59.325Z,20.00
2022-12-02T01:59:28.327Z,20.17
2022-12-02T02:01:57.057Z,18.63
2022-12-02T02:04:25.833Z,22.80
2022-12-02T02:06:54.482Z,19.20
2022-12-02T02:09:23.157Z,20.37
2022-12-02T02:11:51.857Z,18.47
2022-12-02T02:14:21.977Z,20.90
2022-12-02T02:16:50.827Z,19.13
2022-12-02T02:19:19.627Z,19.20
2022-12-02T02:21:52.671Z,18.40
2022-12-02T02:24:22.841Z,22.03
2022-12-02T02:26:51.670Z,20.03
2022-12-02T02:29:20.421Z,19.30
2022-12-02T02:31:49.201Z,20.03
2022-12-02T02:34:18.154Z,20.80
2022-12-02T02:36:47.114Z,19.00
2022-12-02T02:39:18.907Z,18.40
2022-12-02T02:41:49.096Z,18.83
2022-12-02T02:44:22.573Z,18.80
2022-12-02T02:46:54.390Z,18.63
2022-12-02T02:49:23.293Z,18.80
2022-12-02T02:51:52.544Z,18.43
2022-12-02T02:54:21.327Z,18.90
2022-12-02T02:56:51.609Z,16.70
2022-12-02T02:59:20.332Z,15.97
2022-12-02T03:01:51.402Z,16.53
2022-12-02T03:04:25.716Z,16.23
2022-12-02T03:06:54.526Z,17.07
2022-12-02T03:09:26.667Z,18.60
2022-12-02T03:11:59.013Z,15.37
2022-12-02T03:14:28.984Z,16.23
2022-12-02T03:16:59.137Z,15.97
2022-12-02T03:19:28.307Z,17.20
2022-12-02T03:21:57.763Z,16.77
2022-12-02T03:24:26.719Z,17.17
2022-12-02T03:26:56.788Z,15.03
2022-12-02T03:29:25.551Z,16.70
2022-12-02T03:31:54.399Z,16.40
2022-12-02T03:34:23.148Z,16.90
2022-12-02T03:36:51.883Z,15.63
2022-12-02T03:39:21.281Z,15.00
2022-12-02T03:41:50.487Z,16.13
2022-12-02T03:44:20.619Z,16.97
2022-12-02T03:46:49.439Z,15.40
2022-12-02T03:49:24.112Z,15.90
2022-12-02T03:51:53.085Z,16.23
2022-12-02T03:54:27.876Z,14.97
2022-12-02T03:56:56.914Z,16.90
2022-12-02T03:59:30.323Z,15.63
2022-12-02T04:01:59.105Z,16.67
2022-12-02T04:04:27.986Z,16.60
2022-12-02T04:06:56.707Z,16.97
2022-12-02T04:09:25.430Z,16.33
2022-12-02T04:11:54.102Z,16.10
2022-12-02T04:14:22.791Z,17.83
2022-12-02T04:16:52.874Z,15.90
2022-12-02T04:19:21.505Z,17.50
2022-12-02T04:21:50.165Z,16.77
2022-12-02T04:24:18.825Z,16.60
2022-12-02T04:26:47.532Z,14.77
2022-12-02T04:29:18.818Z,17.47
2022-12-02T04:31:47.464Z,18.43
2022-12-02T04:34:17.479Z,14.87
2022-12-02T04:36:46.761Z,15.00
2022-12-02T04:39:18.606Z,13.93
2022-12-02T04:41:47.278Z,16.50
2022-12-02T04:44:18.230Z,13.37
2022-12-02T04:46:47.146Z,15.07
2022-12-02T04:49:24.163Z,15.33
2022-12-02T04:51:52.812Z,15.53
2022-12-02T04:54:21.693Z,16.57
2022-12-02T04:56:50.356Z,16.90
2022-12-02T04:59:19.180Z,15.37
2022-12-02T05:01:47.892Z,16.60
2022-12-02T05:04:17.129Z,16.03
2022-12-02T05:06:47.353Z,14.93
2022-12-02T05:09:19.080Z,15.03
2022-12-02T05:11:47.825Z,16.30
2022-12-02T05:14:17.629Z,13.80
2022-12-02T05:16:48.283Z,15.67
2022-12-02T05:19:18.391Z,16.77
2022-12-02T05:21:48.504Z,15.80
2022-12-02T05:24:19.882Z,17.00
2022-12-02T05:26:48.828Z,15.93
2022-12-02T05:29:17.552Z,16.10
2022-12-02T05:31:49.691Z,17.80
2022-12-02T05:34:18.432Z,16.73
2022-12-02T05:36:50.598Z,17.13
2022-12-02T05:39:19.320Z,17.73
2022-12-02T05:41:50.280Z,16.93
2022-12-02T05:44:29.128Z,15.83
2022-12-02T05:47:03.186Z,17.97
2022-12-02T05:49:35.095Z,16.20
2022-12-02T05:52:19.417Z,14.80
2022-12-02T05:54:48.335Z,15.33
2022-12-02T05:57:27.260Z,14.47
2022-12-02T06:00:15.077Z,18.33
2022-12-02T06:02:46.781Z,17.67
2022-12-02T06:05:21.884Z,15.57
2022-12-02T06:07:56.372Z,17.13
2022-12-02T06:10:32.111Z,18.13
2022-12-02T06:13:05.982Z,15.07
2022-12-02T06:15:37.796Z,16.13
2022-12-02T06:18:15.775Z,17.77
2022-12-02T06:20:46.366Z,15.80
2022-12-02T06:23:21.889Z,14.50
2022-12-02T06:25:52.976Z,16.00
2022-12-02T06:28:29.429Z,17.60
2022-12-02T06:31:00.823Z,13.87
2022-12-02T06:33:33.149Z,17.27
2022-12-02T06:36:11.435Z,15.97
2022-12-02T06:38:49.468Z,16.30
2022-12-02T06:41:22.943Z,14.00
2022-12-02T06:44:09.844Z,15.77
2022-12-02T06:46:39.302Z,14.30
2022-12-02T06:49:18.275Z,16.20
2022-12-02T06:51:47.775Z,14.97
2022-12-02T06:54:23.584Z,17.73
2022-12-02T06:56:52.747Z,15.43
2022-12-02T06:59:24.408Z,16.57
2022-12-02T07:01:57.006Z,17.47
2022-12-02T07:04:45.256Z,16.03
2022-12-02T07:07:25.556Z,16.17
2022-12-02T07:09:59.477Z,18.20
2022-12-02T07:12:42.527Z,17.87
2022-12-02T07:15:29.748Z,18.43
2022-12-02T07:17:59.655Z,16.80
2022-12-02T07:20:33.502Z,19.20
2022-12-02T07:23:03.887Z,17.30
2022-12-02T07:25:48.586Z,16.70
2022-12-02T07:28:28.983Z,18.37
2022-12-02T07:31:13.223Z,19.50
2022-12-02T07:33:45.375Z,20.17
2022-12-02T07:36:20.620Z,19.40
2022-12-02T07:39:07.218Z,20.13
2022-12-02T07:41:46.546Z,21.07
2022-12-02T07:44:17.705Z,19.97
2022-12-02T07:46:50.138Z,18.40
2022-12-02T07:49:20.310Z,18.20
2022-12-02T07:51:57.761Z,20.37
2022-12-02T07:54:27.536Z,19.03
2022-12-02T07:57:05.099Z,20.23
2022-12-02T07:59:34.301Z,18.07
2022-12-02T08:02:03.400Z,17.80
2022-12-02T08:04:32.816Z,17.73
2022-12-02T08:07:01.932Z,18.50
2022-12-02T08:09:30.621Z,19.47
2022-12-02T08:12:00.709Z,17.23
2022-12-02T08:14:29.476Z,17.50
2022-12-02T08:16:59.030Z,18.60
2022-12-02T08:19:27.726Z,17.57
2022-12-02T08:21:56.502Z,19.23
2022-12-02T08:24:25.194Z,17.13
2022-12-02T08:26:56.904Z,18.43
2022-12-02T08:29:27.073Z,17.93
2022-12-02T08:31:58.196Z,18.20
2022-12-02T08:34:28.595Z,18.40
2022-12-02T08:36:57.579Z,15.93
2022-12-02T08:39:26.369Z,15.43
2022-12-02T08:41:55.188Z,16.00
2022-12-02T08:44:23.928Z,17.57
2022-12-02T08:46:56.907Z,15.07
2022-12-02T08:49:28.202Z,15.67
2022-12-02T08:51:57.149Z,17.50
2022-12-02T08:54:26.183Z,17.93
2022-12-02T08:56:56.766Z,17.07
2022-12-02T08:59:25.981Z,16.37
2022-12-02T09:01:56.437Z,17.70
2022-12-02T09:04:25.226Z,16.03
2022-12-02T09:06:53.920Z,15.00
2022-12-02T09:09:22.757Z,17.93
2022-12-02T09:11:51.471Z,16.77
2022-12-02T09:14:20.349Z,14.67
2022-12-02T09:16:50.764Z,16.23
2022-12-02T09:19:21.142Z,16.27
2022-12-02T09:21:49.689Z,17.07
2022-12-02T09:24:18.309Z,16.03
2022-12-02T09:26:47.282Z,17.47
2022-12-02T09:29:16.414Z,16.60
2022-12-02T09:31:45.195Z,17.80
2022-12-02T09:34:13.934Z,16.73
2022-12-02T09:36:44.080Z,17.37
2022-12-02T09:39:13.014Z,15.90
2022-12-02T09:41:41.757Z,16.87
2022-12-02T09:44:12.349Z,17.33
2022-12-02T09:46:41.338Z,17.93
2022-12-02T09:49:10.096Z,16.13
2022-12-02T09:51:38.808Z,16.53
2022-12-02T09:54:10.339Z,18.27
2022-12-02T09:56:41.384Z,18.17
2022-12-02T09:59:15.991Z,17.43
2022-12-02T10:01:49.099Z,18.03
2022-12-02T10:04:21.288Z,16.77
2022-12-02T10:06:50.187Z,19.57
2022-12-02T10:09:28.203Z,16.10
2022-12-02T10:11:57.013Z,19.17
2022-12-02T10:14:27.511Z,18.83
2022-12-02T10:16:56.364Z,18.17
2022-12-02T10:19:25.098Z,17.40
2022-12-02T10:21:55.811Z,16.53
2022-12-02T10:24:39.404Z,19.07
2022-12-02T10:27:08.357Z,15.83
2022-12-02T10:29:37.500Z,19.73
2022-12-02T10:32:17.829Z,20.03
2022-12-02T10:35:04.328Z,17.20
2022-12-02T10:37:35.271Z,15.93
2022-12-02T10:40:19.724Z,14.87
2022-12-02T10:42:50.681Z,15.67
2022-12-02T10:45:22.398Z,18.33
2022-12-02T10:48:11.393Z,15.20
2022-12-02T10:50:40.397Z,14.43
2022-12-02T10:53:16.221Z,15.07
2022-12-02T10:55:48.647Z,16.53
2022-12-02T10:58:28.489Z,16.03
2022-12-02T11:00:57.761Z,17.83
2022-12-02T11:03:27.224Z,17.37
2022-12-02T11:05:56.098Z,16.50
2022-12-02T11:08:27.335Z,15.87
2022-12-02T11:11:12.357Z,15.73
2022-12-02T11:13:59.107Z,16.60
2022-12-02T11:17:05.405Z,15.17
2022-12-02T11:19:46.574Z,14.87
2022-12-02T11:23:08.995Z,16.23
2022-12-02T11:25:59.348Z,14.57
2022-12-02T11:29:06.584Z,14.93
2022-12-02T11:31:35.253Z,18.53
2022-12-02T11:34:26.343Z,13.10
2022-12-02T11:37:37.873Z,13.70
2022-12-02T11:40:30.146Z,11.20
2022-12-02T11:43:31.901Z,10.93
2022-12-02T11:46:05.129Z,13.73
2022-12-02T11:48:33.810Z,13.37
2022-12-02T11:51:02.653Z,14.00
2022-12-02T11:53:31.286Z,13.03
2022-12-02T11:56:01.283Z,10.80
2022-12-02T11:58:33.325Z,11.67
2022-12-02T12:01:05.427Z,11.47
2022-12-02T12:03:35.117Z,12.63
2022-12-02T12:06:09.534Z,12.10
2022-12-02T12:08:38.978Z,12.00
2022-12-02T12:11:22.234Z,12.57
2022-12-02T12:14:08.062Z,10.67
2022-12-02T12:16:40.695Z,12.63
2022-12-02T12:19:27.116Z,10.50
2022-12-02T12:21:56.554Z,11.57
2022-12-02T12:24:35.386Z,12.87
2022-12-02T12:27:32.497Z,10.73
2022-12-02T12:30:01.305Z,11.93
2022-12-02T12:32:31.251Z,11.40
2022-12-02T12:34:59.966Z,10.80
2022-12-02T12:37:28.515Z,11.07
2022-12-02T12:39:57.214Z,11.57
2022-12-02T12:42:25.843Z,11.27
2022-12-02T12:44:54.608Z,10.37
2022-12-02T12:47:23.361Z,11.33
2022-12-02T12:49:53.354Z,10.27
2022-12-02T12:52:21.911Z,9.73
2022-12-02T12:54:51.246Z,10.57
2022-12-02T12:57:20.673Z,9.97
2022-12-02T12:59:49.736Z,11.77
2022-12-02T13:02:18.601Z,11.23
2022-12-02T13:04:47.373Z,10.53
2022-12-02T13:07:17.299Z,10.43
2022-12-02T13:09:46.241Z,11.57
2022-12-02T13:12:15.117Z,11.00
2022-12-02T13:14:43.885Z,11.43
2022-12-02T13:17:12.602Z,10.83
2022-12-02T13:19:41.245Z,10.23
2022-12-02T13:22:09.947Z,12.53
2022-12-02T13:24:43.141Z,10.83
2022-12-02T13:27:12.233Z,10.83
2022-12-02T13:29:40.845Z,11.60
2022-12-02T13:32:09.412Z,12.80
2022-12-02T13:34:38.147Z,14.07
2022-12-02T13:37:06.709Z,12.10
2022-12-02T13:39:35.591Z,12.27
2022-12-02T13:42:05.934Z,13.50
2022-12-02T13:44:36.319Z,14.83
2022-12-02T13:47:05.642Z,14.27
2022-12-02T13:49:34.564Z,15.27
2022-12-02T13:52:03.196Z,14.00
2022-12-02T13:54:31.861Z,13.97
2022-12-02T13:57:00.547Z,14.43
2022-12-02T13:59:37.415Z,12.60
2022-12-02T14:02:07.123Z,14.37
2022-12-02T14:04:35.795Z,16.37
2022-12-02T14:07:04.796Z,14.17
2022-12-02T14:09:33.447Z,12.40
2022-12-02T14:12:01.984Z,14.30
2022-12-02T14:14:32.022Z,16.77
2022-12-02T14:17:00.588Z,17.73
2022-12-02T14:19:29.222Z,18.37
2022-12-02T14:21:58.005Z,17.40
2022-12-02T14:24:26.796Z,18.83
2022-12-02T14:26:55.559Z,18.37
2022-12-02T14:29:24.178Z,17.47
2022-12-02T14:31:54.251Z,17.43
2022-12-02T14:34:23.037Z,21.23
2022-12-02T14:36:51.631Z,19.50
2022-12-02T14:39:20.570Z,17.37
2022-12-02T14:41:49.152Z,19.67
2022-12-02T14:44:17.825Z,21.17
2022-12-02T14:46:47.425Z,19.47
2022-12-02T14:52:06.500Z,21.97
2022-12-02T14:54:35.418Z,21.90
2022-12-02T14:57:04.502Z,22.43
2022-12-02T14:59:33.350Z,22.70
2022-12-02T15:02:02.035Z,24.20
2022-12-02T15:04:32.071Z,22.37
2022-12-02T15:07:00.697Z,26.00
2022-12-02T15:09:29.369Z,22.70
2022-12-02T15:11:58.583Z,22.10
2022-12-02T15:14:27.296Z,24.90
2022-12-02T15:16:55.983Z,23.97
2022-12-02T15:19:24.609Z,22.87
2022-12-02T15:21:54.605Z,24.53
2022-12-02T15:24:23.264Z,23.63
2022-12-02T15:26:55.506Z,23.17
2022-12-02T15:29:24.780Z,22.10
2022-12-02T15:31:53.548Z,25.67
2022-12-02T15:34:22.458Z,25.97
2022-12-02T15:36:51.063Z,25.10
2022-12-02T15:39:21.101Z,21.63
2022-12-02T15:41:49.795Z,21.80
2022-12-02T15:44:18.387Z,23.67
2022-12-02T15:46:47.226Z,22.37
2022-12-02T15:49:16.445Z,22.57
2022-12-02T15:51:47.372Z,21.67
2022-12-02T15:54:16.537Z,22.33
2022-12-02T15:56:49.133Z,22.50
2022-12-02T15:59:21.503Z,21.37
2022-12-02T16:01:50.098Z,23.97
2022-12-02T16:04:18.692Z,19.93
2022-12-02T16:06:47.395Z,19.53
2022-12-02T16:09:16.577Z,19.67
2022-12-02T16:11:48.905Z,20.50
2022-12-02T16:14:17.502Z,19.03
2022-12-02T16:16:46.689Z,19.73
2022-12-02T16:19:15.367Z,19.83
2022-12-02T16:21:44.170Z,19.10
2022-12-02T16:24:12.719Z,20.23
2022-12-02T16:26:41.374Z,20.43
2022-12-02T16:29:11.363Z,21.33
2022-12-02T16:31:40.095Z,23.70
2022-12-02T16:34:08.735Z,19.80
2022-12-02T16:36:37.293Z,19.63
2022-12-02T16:39:05.951Z,19.80
2022-12-02T16:41:34.520Z,20.53
2022-12-02T16:44:03.129Z,19.33
2022-12-02T16:46:33.402Z,19.70
2022-12-02T16:49:02.005Z,17.27
2022-12-02T16:51:30.609Z,20.07
2022-12-02T16:53:59.141Z,22.33
2022-12-02T16:56:27.888Z,18.67
2022-12-02T16:58:56.810Z,18.37
2022-12-02T17:01:25.441Z,18.90
2022-12-02T17:03:55.454Z,19.87
2022-12-02T17:06:24.016Z,22.23
2022-12-02T17:08:55.854Z,19.33
2022-12-02T17:11:24.778Z,20.53
2022-12-02T17:13:53.461Z,21.10
2022-12-02T17:16:22.202Z,19.13
2022-12-02T17:18:50.921Z,17.97
2022-12-02T17:21:20.898Z,19.50
2022-12-02T17:23:49.605Z,18.63
2022-12-02T17:26:18.515Z,19.77
2022-12-02T17:28:47.310Z,22.23
2022-12-02T17:31:19.166Z,17.17
2022-12-02T17:33:50.480Z,20.60
2022-12-02T17:36:20.541Z,17.77
2022-12-02T17:38:56.631Z,19.30
2022-12-02T17:41:26.709Z,17.83
2022-12-02T17:43:55.334Z,16.50
2022-12-02T17:46:24.064Z,17.00
2022-12-02T17:48:52.783Z,17.17
2022-12-02T17:51:22.964Z,16.57
2022-12-02T17:53:51.574Z,18.50
2022-12-02T17:56:20.199Z,18.07
2022-12-02T17:58:48.904Z,20.43
2022-12-02T18:01:17.687Z,16.00
2022-12-02T18:03:47.019Z,21.30
2022-12-02T18:06:16.541Z,19.33
2022-12-02T18:08:49.041Z,18.93
2022-12-02T18:11:17.688Z,18.10
2022-12-02T18:13:47.089Z,19.13
2022-12-02T18:16:18.596Z,20.57
2022-12-02T18:18:47.567Z,18.57
2022-12-02T18:21:16.823Z,18.10
2022-12-02T18:23:47.286Z,23.17
2022-12-02T18:26:16.645Z,20.53
2022-12-02T18:28:45.290Z,16.83
2022-12-02T18:31:14.162Z,18.50
2022-12-02T18:33:42.808Z,17.13
2022-12-02T18:36:11.491Z,18.63
2022-12-02T18:38:40.228Z,17.40
2022-12-02T18:41:10.595Z,18.70
2022-12-02T18:43:39.219Z,22.73
2022-12-02T18:46:08.224Z,20.13
2022-12-02T18:48:36.834Z,16.03
2022-12-02T18:51:05.730Z,20.20
2022-12-02T18:53:34.335Z,26.47
2022-12-02T18:56:05.664Z,17.33
2022-12-02T18:58:35.759Z,41.67
2022-12-02T19:01:04.792Z,34.90
2022-12-02T19:03:33.787Z,21.00
2022-12-02T19:06:02.448Z,15.77
2022-12-02T19:08:31.131Z,16.33
2022-12-02T19:10:59.721Z,14.80
2022-12-02T19:13:28.488Z,13.87
2022-12-02T19:15:58.644Z,14.73
2022-12-02T19:18:27.360Z,14.00
2022-12-02T19:20:55.953Z,13.53
2022-12-02T19:23:24.677Z,14.20
2022-12-02T19:25:53.428Z,14.30
2022-12-02T19:28:23.289Z,10.17
2022-12-02T19:30:52.151Z,13.00
2022-12-02T19:33:22.400Z,26.30
2022-12-02T19:35:50.976Z,20.60
2022-12-02T19:38:19.761Z,15.23
2022-12-02T19:40:48.515Z,24.80
2022-12-02T19:43:17.791Z,13.37
2022-12-02T19:45:55.114Z,15.07
2022-12-02T19:48:25.260Z,10.37
2022-12-02T19:50:54.071Z,16.17
2022-12-02T19:53:22.785Z,12.10
2022-12-02T19:55:51.507Z,26.33
2022-12-02T19:58:20.272Z,19.47
2022-12-02T20:00:49.075Z,18.27
2022-12-02T20:03:17.806Z,15.33
2022-12-02T20:05:48.411Z,25.43
2022-12-02T20:08:17.380Z,16.33
2022-12-02T20:10:49.089Z,13.57
2022-12-02T20:13:18.004Z,26.43
2022-12-02T20:15:52.379Z,19.43
2022-12-02T20:18:23.652Z,16.80
2022-12-02T20:20:53.771Z,24.85
2022-12-02T20:23:23.297Z,25.17
2022-12-02T20:25:52.204Z,25.63
2022-12-02T20:28:21.070Z,16.67
2022-12-02T20:30:50.045Z,18.20
2022-12-02T20:33:18.793Z,14.27
2022-12-02T20:35:47.531Z,15.10
2022-12-02T20:38:18.063Z,13.33
2022-12-02T20:40:46.884Z,14.97
2022-12-02T20:43:16.138Z,18.40
2022-12-02T20:45:45.135Z,21.23
2022-12-02T20:48:13.888Z,14.63
2022-12-02T20:50:43.908Z,17.00
2022-12-02T20:53:12.505Z,23.37
2022-12-02T20:55:42.504Z,12.73
2022-12-02T20:58:11.425Z,15.47
2022-12-02T21:00:40.291Z,17.90
2022-12-02T21:03:09.147Z,13.20
2022-12-02T21:05:37.821Z,16.13
2022-12-02T21:08:06.828Z,23.50
2022-12-02T21:10:35.619Z,15.83
2022-12-02T21:13:05.865Z,13.77
2022-12-02T21:15:35.089Z,14.20
2022-12-02T21:18:03.739Z,13.33
2022-12-02T21:20:34.665Z,16.53
2022-12-02T21:23:05.155Z,13.70
2022-12-02T21:25:33.979Z,14.60
2022-12-02T21:28:02.661Z,13.27
2022-12-02T21:30:35.007Z,13.80
2022-12-02T21:33:03.806Z,12.40
2022-12-02T21:35:32.629Z,16.00
2022-12-02T21:38:01.362Z,22.33
2022-12-02T21:40:30.028Z,11.73
2022-12-02T21:42:58.652Z,10.87
2022-12-02T21:45:27.351Z,16.07
2022-12-02T21:47:57.553Z,13.60
2022-12-02T21:50:29.066Z,15.90
2022-12-02T21:52:57.795Z,15.47
2022-12-02T21:55:26.540Z,19.33
2022-12-02T21:57:55.289Z,12.93
2022-12-02T22:00:24.302Z,14.87
2022-12-02T22:02:53.072Z,16.40
2022-12-02T22:05:23.063Z,12.20
2022-12-02T22:07:51.922Z,15.03
2022-12-02T22:10:22.356Z,15.43
2022-12-02T22:12:51.672Z,16.83
2022-12-02T22:15:22.831Z,16.10
2022-12-02T22:17:51.587Z,19.77
2022-12-02T22:20:20.579Z,17.63
2022-12-02T22:22:50.644Z,15.70
2022-12-02T22:25:19.497Z,14.83
2022-12-02T22:27:48.132Z,13.27
2022-12-02T22:30:17.421Z,30.57
2022-12-02T22:32:46.439Z,15.13
2022-12-02T22:35:15.469Z,22.63
2022-12-02T22:37:44.192Z,13.33
2022-12-02T22:40:17.277Z,16.40
2022-12-02T22:42:46.421Z,13.73
2022-12-02T22:45:15.268Z,15.30
2022-12-02T22:47:43.909Z,13.27
2022-12-02T22:50:15.886Z,13.37
2022-12-02T22:52:46.889Z,15.67
2022-12-02T22:55:17.000Z,13.37
2022-12-02T22:57:46.514Z,16.63
2022-12-02T23:00:18.149Z,16.97
2022-12-02T23:02:47.132Z,14.07
2022-12-02T23:05:16.304Z,18.30
2022-12-02T23:07:45.229Z,21.70
2022-12-02T23:10:13.948Z,18.97
2022-12-02T23:12:44.140Z,20.40
2022-12-02T23:15:35.827Z,25.80
2022-12-02T23:18:01.448Z,22.13
2022-12-02T23:20:30.517Z,23.77
2022-12-02T23:22:59.161Z,23.27
2022-12-02T23:25:27.800Z,14.57
2022-12-02T23:27:57.877Z,15.87
2022-12-02T23:30:29.985Z,12.83
2022-12-02T23:32:58.681Z,15.40
2022-12-02T23:35:27.537Z,14.53
2022-12-02T23:37:56.322Z,15.27
2022-12-02T23:40:25.189Z,14.97
2022-12-02T23:42:53.811Z,15.47
2022-12-02T23:45:23.850Z,16.10
2022-12-02T23:47:52.501Z,14.80
2022-12-02T23:50:21.154Z,13.70
2022-12-02T23:52:49.868Z,13.10
2022-12-02T23:55:18.821Z,13.70
2022-12-02T23:57:47.402Z,14.77
